createdAt,value
2018-04-28T10:58:44.796Z,5.57
2018-04-28T11:01:14.296Z,5.53
2018-04-28T11:03:43.608Z,5.67
2018-04-28T11:06:14.554Z,5.00
2018-04-28T11:08:44.204Z,4.80
2018-04-28T11:11:13.362Z,5.67
2018-04-28T11:13:42.783Z,5.13
2018-04-28T11:16:12.370Z,5.67
2018-04-28T11:18:43.396Z,6.03
2018-04-28T11:21:13.141Z,5.27
2018-04-28T11:23:40.654Z,5.60
2018-04-28T11:26:09.798Z,5.50
2018-04-28T11:28:39.462Z,5.03
2018-04-28T11:31:09.472Z,5.43
2018-04-28T11:33:40.069Z,5.50
2018-04-28T11:36:08.170Z,5.20
2018-04-28T11:38:38.331Z,5.50
2018-04-28T11:41:07.558Z,5.40
2018-04-28T11:43:37.568Z,6.57
2018-04-28T11:46:06.931Z,6.03
2018-04-28T11:48:36.509Z,18.93
2018-04-28T11:51:05.860Z,23.30
2018-04-28T11:53:34.803Z,6.50
2018-04-28T11:56:05.005Z,8.87
2018-04-28T11:58:34.707Z,12.60
2018-04-28T12:01:05.180Z,7.67
2018-04-28T12:15:29.959Z,5.50
2018-04-28T12:17:57.434Z,6.20
2018-04-28T12:20:24.948Z,5.90
2018-04-28T12:22:54.317Z,5.43
2018-04-28T12:25:23.740Z,6.60
2018-04-28T12:27:53.350Z,6.10
2018-04-28T12:30:24.900Z,5.60
2018-04-28T12:32:54.307Z,6.30
2018-04-28T12:35:23.774Z,5.93
2018-04-28T12:37:53.910Z,6.37
2018-04-28T12:40:23.519Z,5.90
2018-04-28T12:42:53.749Z,6.20
2018-04-28T12:45:23.954Z,6.47
2018-04-28T12:47:55.874Z,5.67
2018-04-28T12:50:25.491Z,5.60
2018-04-28T12:52:59.854Z,6.13
2018-04-28T12:55:38.114Z,5.23
2018-04-28T12:58:09.161Z,5.87
2018-04-28T13:00:36.992Z,5.20
2018-04-28T13:03:06.469Z,5.83
2018-04-28T13:05:37.697Z,7.97
2018-04-28T13:08:08.921Z,5.90
2018-04-28T13:10:38.396Z,5.23
2018-04-28T13:13:08.304Z,4.97
2018-04-28T13:15:37.557Z,4.97
2018-04-28T13:18:10.248Z,4.87
2018-04-28T13:20:39.702Z,5.00
2018-04-28T13:23:13.723Z,5.10
2018-04-28T13:25:44.018Z,5.13
2018-04-28T13:28:14.044Z,5.33
2018-04-28T13:30:43.212Z,5.17
2018-04-28T13:33:12.790Z,5.17
2018-04-28T13:35:41.896Z,5.70
2018-04-28T13:38:12.378Z,5.67
2018-04-28T13:40:41.343Z,5.33
2018-04-28T13:43:10.100Z,5.63
2018-04-28T13:45:39.281Z,5.50
2018-04-28T13:48:08.575Z,6.00
2018-04-28T13:50:38.308Z,6.00
2018-04-28T13:53:05.881Z,5.83
2018-04-28T13:55:35.961Z,5.50
2018-04-28T13:58:05.068Z,5.97
2018-04-28T14:00:34.107Z,5.17
2018-04-28T14:03:03.429Z,4.97
2018-04-28T14:05:31.001Z,5.20
2018-04-28T14:08:00.166Z,5.60
2018-04-28T14:10:29.846Z,5.23
2018-04-28T14:12:59.142Z,5.30
2018-04-28T14:15:28.615Z,6.10
2018-04-28T14:17:58.256Z,6.37
2018-04-28T14:20:30.634Z,6.17
2018-04-28T14:23:00.224Z,5.80
2018-04-28T14:25:30.260Z,5.20
2018-04-28T14:28:03.936Z,5.90
2018-04-28T14:30:33.413Z,5.43
2018-04-28T14:33:03.264Z,5.40
2018-04-28T14:35:31.265Z,6.90
2018-04-28T14:38:00.804Z,5.53
2018-04-28T14:40:31.181Z,6.30
2018-04-28T14:43:04.332Z,5.50
2018-04-28T14:45:33.661Z,5.00
2018-04-28T14:48:02.803Z,5.50
2018-04-28T14:50:32.978Z,4.80
2018-04-28T14:53:03.326Z,5.20
2018-04-28T14:55:32.695Z,5.53
2018-04-28T14:58:02.145Z,5.50
2018-04-28T15:00:31.931Z,5.17
2018-04-28T15:03:01.518Z,5.30
2018-04-28T15:05:30.697Z,5.37
2018-04-28T15:08:00.845Z,5.63
2018-04-28T15:10:32.104Z,5.37
2018-04-28T15:13:01.657Z,5.10
2018-04-28T15:15:31.095Z,5.30
2018-04-28T15:17:59.992Z,6.07
2018-04-28T15:20:28.697Z,5.63
2018-04-28T15:22:58.122Z,5.13
2018-04-28T15:25:27.510Z,5.47
2018-04-28T15:27:56.679Z,5.60
2018-04-28T15:30:26.338Z,5.23
2018-04-28T15:32:55.603Z,5.03
2018-04-28T15:35:26.677Z,4.57
2018-04-28T15:37:55.936Z,4.80
2018-04-28T15:40:25.390Z,5.10
2018-04-28T15:42:54.543Z,4.20
2018-04-28T15:45:23.836Z,4.63
2018-04-28T15:47:53.179Z,4.80
2018-04-28T15:50:20.765Z,4.90
2018-04-28T15:52:50.065Z,5.40
2018-04-28T15:55:21.645Z,4.70
2018-04-28T15:57:51.472Z,4.27
2018-04-28T16:00:21.577Z,4.97
2018-04-28T16:02:51.327Z,4.97
2018-04-28T16:05:20.529Z,5.00
2018-04-28T16:07:49.794Z,5.20
2018-04-28T16:10:19.408Z,5.50
2018-04-28T16:12:49.083Z,4.80
2018-04-28T16:15:18.509Z,5.43
2018-04-28T16:17:52.171Z,5.20
2018-04-28T16:20:20.388Z,5.03
2018-04-28T16:22:54.169Z,5.30
2018-04-28T16:25:22.818Z,5.83
2018-04-28T16:27:53.320Z,5.27
2018-04-28T16:30:22.783Z,5.10
2018-04-28T16:32:51.457Z,4.90
2018-04-28T16:35:20.586Z,6.67
2018-04-28T16:37:49.767Z,6.03
2018-04-28T16:40:19.569Z,7.10
2018-04-28T16:42:50.563Z,5.27
2018-04-28T16:45:19.737Z,5.30
2018-04-28T16:47:49.300Z,4.77
2018-04-28T16:50:18.549Z,6.30
2018-04-28T16:52:48.228Z,5.60
2018-04-28T16:55:17.418Z,5.30
2018-04-28T16:57:47.122Z,5.53
2018-04-28T17:00:16.399Z,6.00
2018-04-28T17:02:45.903Z,4.70
2018-04-28T17:05:15.167Z,6.00
2018-04-28T17:07:44.413Z,5.30
2018-04-28T17:10:13.958Z,5.60
2018-04-28T17:12:41.923Z,4.53
2018-04-28T17:15:11.534Z,6.40
2018-04-28T17:17:52.392Z,5.20
2018-04-28T17:20:22.110Z,5.17
2018-04-28T17:22:52.472Z,4.90
2018-04-28T17:25:22.950Z,5.17
2018-04-28T17:27:52.295Z,4.80
2018-04-28T17:30:21.744Z,5.60
2018-04-28T17:32:50.991Z,5.10
2018-04-28T17:35:22.016Z,5.80
2018-04-28T17:37:51.336Z,5.50
2018-04-28T17:40:20.669Z,5.33
2018-04-28T17:42:49.013Z,5.43
2018-04-28T17:45:18.451Z,5.50
2018-04-28T17:47:48.109Z,6.70
2018-04-28T17:50:18.221Z,4.60
2018-04-28T17:52:47.987Z,5.70
2018-04-28T17:55:17.456Z,5.30
2018-04-28T17:57:46.885Z,5.33
2018-04-28T18:00:14.384Z,5.53
2018-04-28T18:02:43.792Z,7.20
2018-04-28T18:05:12.979Z,6.20
2018-04-28T18:07:42.816Z,5.07
2018-04-28T18:10:12.859Z,5.23
2018-04-28T18:12:43.005Z,4.60
2018-04-28T18:15:12.871Z,4.90
2018-04-28T18:17:42.944Z,5.60
2018-04-28T18:20:12.308Z,5.30
2018-04-28T18:22:41.447Z,5.37
2018-04-28T18:25:11.386Z,5.40
2018-04-28T18:27:40.497Z,5.93
2018-04-28T18:30:10.732Z,6.50
2018-04-28T18:32:40.024Z,5.33
2018-04-28T18:35:09.957Z,5.30
2018-04-28T18:37:39.096Z,4.90
2018-04-28T18:40:08.576Z,4.70
2018-04-28T18:42:38.101Z,4.70
2018-04-28T18:45:07.436Z,4.60
2018-04-28T18:47:41.370Z,4.80
2018-04-28T18:50:10.747Z,4.60
2018-04-28T18:52:40.359Z,5.53
2018-04-28T18:55:10.353Z,8.90
2018-04-28T18:57:40.092Z,5.30
2018-04-28T19:00:09.263Z,5.67
2018-04-28T19:02:39.180Z,4.87
2018-04-28T19:05:08.910Z,5.83
2018-04-28T19:07:38.102Z,5.30
2018-04-28T19:10:07.802Z,5.30
2018-04-28T19:12:35.306Z,4.73
2018-04-28T19:15:02.790Z,4.33
2018-04-28T19:17:32.053Z,3.90
2018-04-28T19:20:00.593Z,4.30
2018-04-28T19:22:30.298Z,5.13
2018-04-28T19:24:59.287Z,5.30
2018-04-28T19:27:29.587Z,4.30
2018-04-28T19:29:59.977Z,4.50
2018-04-28T19:32:34.038Z,4.90
2018-04-28T19:35:03.435Z,4.50
2018-04-28T19:37:32.931Z,4.83
2018-04-28T19:40:02.353Z,5.13
2018-04-28T19:42:32.519Z,4.80
2018-04-28T19:45:02.091Z,4.97
2018-04-28T19:47:31.884Z,4.90
2018-04-28T19:50:02.481Z,4.90
2018-04-28T19:52:30.174Z,5.10
2018-04-28T19:55:06.747Z,5.00
2018-04-28T19:57:38.114Z,4.03
2018-04-28T20:00:14.304Z,4.63
2018-04-28T20:02:43.991Z,5.00
2018-04-28T20:05:12.131Z,4.17
2018-04-28T20:07:42.925Z,4.80
2018-04-28T20:10:12.289Z,4.87
2018-04-28T20:12:41.863Z,5.40
2018-04-28T20:15:10.497Z,5.50
2018-04-28T20:17:41.012Z,5.40
2018-04-28T20:20:09.350Z,4.50
2018-04-28T20:22:49.437Z,5.03
2018-04-28T20:25:22.842Z,4.73
2018-04-28T20:27:51.697Z,5.03
2018-04-28T20:30:21.889Z,5.03
2018-04-28T20:32:49.391Z,4.37
2018-04-28T20:35:19.825Z,4.90
2018-04-28T20:37:49.903Z,4.70
2018-04-28T20:40:19.504Z,4.50
2018-04-28T20:42:48.848Z,4.20
2018-04-28T20:45:22.634Z,4.77
2018-04-28T20:47:50.164Z,4.57
2018-04-28T20:50:20.074Z,5.00
2018-04-28T20:52:49.216Z,4.57
2018-04-28T20:55:18.553Z,4.47
2018-04-28T20:57:56.077Z,5.00
2018-04-28T21:00:27.110Z,4.93
2018-04-28T21:02:56.647Z,4.30
2018-04-28T21:05:25.956Z,4.47
2018-04-28T21:07:55.508Z,4.47
2018-04-28T21:10:24.680Z,4.33
2018-04-28T21:12:52.242Z,4.10
2018-04-28T21:15:21.383Z,4.47
2018-04-28T21:17:51.174Z,4.50
2018-04-28T21:20:20.515Z,4.40
2018-04-28T21:22:50.157Z,4.33
2018-04-28T21:25:19.228Z,4.53
2018-04-28T21:27:48.322Z,4.10
2018-04-28T21:30:17.879Z,3.87
2018-04-28T21:32:47.356Z,4.40
2018-04-28T21:35:16.811Z,4.00
2018-04-28T21:37:46.386Z,4.30
2018-04-28T21:40:16.101Z,4.03
2018-04-28T21:42:45.218Z,3.40
2018-04-28T21:45:14.143Z,4.40
2018-04-28T21:47:44.599Z,3.43
2018-04-28T21:50:18.067Z,3.70
2018-04-28T21:52:47.388Z,3.67
2018-04-28T21:55:16.960Z,3.10
2018-04-28T21:57:46.362Z,2.87
2018-04-28T22:00:15.923Z,2.80
2018-04-28T22:02:45.153Z,3.10
2018-04-28T22:05:12.627Z,2.83
2018-04-28T22:07:42.548Z,2.90
2018-04-28T22:10:11.866Z,3.20
2018-04-28T22:12:41.271Z,2.57
2018-04-28T22:15:10.656Z,2.57
2018-04-28T22:17:40.228Z,2.80
2018-04-28T22:20:09.201Z,3.17
2018-04-28T22:22:42.944Z,2.87
2018-04-28T22:25:12.924Z,2.73
2018-04-28T22:27:45.780Z,2.27
2018-04-28T22:30:15.487Z,2.80
2018-04-28T22:32:44.925Z,2.60
2018-04-28T22:35:15.031Z,2.60
2018-04-28T22:37:44.066Z,2.60
2018-04-28T22:40:14.095Z,2.30
2018-04-28T22:42:44.093Z,2.47
2018-04-28T22:45:14.278Z,2.40
2018-04-28T22:47:43.831Z,2.20
2018-04-28T22:50:13.156Z,2.70
2018-04-28T22:52:42.505Z,2.97
2018-04-28T22:55:12.633Z,2.70
2018-04-28T22:57:41.847Z,2.87
2018-04-28T23:00:09.294Z,1.97
2018-04-28T23:02:38.148Z,2.93
2018-04-28T23:05:06.709Z,2.40
2018-04-28T23:07:34.617Z,2.80
2018-04-28T23:10:03.754Z,2.50
2018-04-28T23:12:32.434Z,3.17
2018-04-28T23:15:01.522Z,2.60
2018-04-28T23:17:29.782Z,2.37
2018-04-28T23:19:59.482Z,2.87
2018-04-28T23:22:27.634Z,2.67
2018-04-28T23:24:56.627Z,2.90
2018-04-28T23:27:25.852Z,2.50
2018-04-28T23:29:53.655Z,2.63
2018-04-28T23:32:22.637Z,2.40
2018-04-28T23:34:53.621Z,2.43
2018-04-28T23:37:21.473Z,2.60
2018-04-28T23:39:52.298Z,2.33
2018-04-28T23:42:21.446Z,2.67
2018-04-28T23:44:51.173Z,3.00
2018-04-28T23:47:20.919Z,3.40
2018-04-28T23:49:49.103Z,4.53
2018-04-28T23:52:19.053Z,3.83
2018-04-28T23:54:48.475Z,2.90
2018-04-28T23:57:18.968Z,3.07
2018-04-28T23:59:48.479Z,3.20
